sensor_id;sensor_type;location;lat;lon;timestamp;P1;durP1;ratioP1;P2;durP2;ratioP2
62796;SDS011;48839;48.546;-4.178;2022-12-18T00:01:27;26.20;;;11.98;;
62796;SDS011;48839;48.546;-4.178;2022-12-18T00:03:54;26.15;;;12.07;;
62796;SDS011;48839;48.546;-4.178;2022-12-18T00:06:21;25.65;;;13.02;;
62796;SDS011;48839;48.546;-4.178;2022-12-18T00:08:47;24.00;;;10.98;;
62796;SDS011;48839;48.546;-4.178;2022-12-18T00:11:15;23.65;;;12.07;;
62796;SDS011;48839;48.546;-4.178;2022-12-18T00:13:41;18.88;;;10.75;;
62796;SDS011;48839;48.546;-4.178;2022-12-18T00:16:09;25.05;;;12.88;;
62796;SDS011;48839;48.546;-4.178;2022-12-18T00:18:35;22.73;;;11.07;;
62796;SDS011;48839;48.546;-4.178;2022-12-18T00:21:02;24.60;;;13.05;;
62796;SDS011;48839;48.546;-4.178;2022-12-18T00:23:29;27.20;;;12.82;;
62796;SDS011;48839;48.546;-4.178;2022-12-18T00:25:59;26.85;;;12.70;;
62796;SDS011;48839;48.546;-4.178;2022-12-18T00:28:25;29.95;;;13.02;;
62796;SDS011;48839;48.546;-4.178;2022-12-18T00:30:51;22.05;;;11.02;;
62796;SDS011;48839;48.546;-4.178;2022-12-18T00:33:24;25.27;;;11.80;;
62796;SDS011;48839;48.546;-4.178;2022-12-18T00:35:50;25.92;;;12.45;;
62796;SDS011;48839;48.546;-4.178;2022-12-18T00:38:16;21.85;;;11.05;;
62796;SDS011;48839;48.546;-4.178;2022-12-18T00:40:42;23.40;;;11.98;;
62796;SDS011;48839;48.546;-4.178;2022-12-18T00:43:08;20.10;;;12.27;;
62796;SDS011;48839;48.546;-4.178;2022-12-18T00:45:34;26.92;;;12.93;;
62796;SDS011;48839;48.546;-4.178;2022-12-18T00:48:01;22.10;;;11.45;;
62796;SDS011;48839;48.546;-4.178;2022-12-18T00:50:27;28.67;;;12.80;;
62796;SDS011;48839;48.546;-4.178;2022-12-18T00:52:53;23.73;;;12.35;;
62796;SDS011;48839;48.546;-4.178;2022-12-18T00:55:19;27.27;;;13.93;;
62796;SDS011;48839;48.546;-4.178;2022-12-18T00:57:45;31.92;;;14.70;;
62796;SDS011;48839;48.546;-4.178;2022-12-18T01:00:12;27.92;;;13.68;;
62796;SDS011;48839;48.546;-4.178;2022-12-18T01:02:39;31.63;;;14.13;;
62796;SDS011;48839;48.546;-4.178;2022-12-18T01:05:05;25.20;;;12.73;;
62796;SDS011;48839;48.546;-4.178;2022-12-18T01:07:31;23.98;;;12.43;;
62796;SDS011;48839;48.546;-4.178;2022-12-18T01:09:58;26.95;;;13.23;;
62796;SDS011;48839;48.546;-4.178;2022-12-18T01:12:24;31.95;;;13.63;;
62796;SDS011;48839;48.546;-4.178;2022-12-18T01:14:50;31.85;;;14.57;;
62796;SDS011;48839;48.546;-4.178;2022-12-18T01:17:16;29.25;;;13.75;;
62796;SDS011;48839;48.546;-4.178;2022-12-18T01:19:42;32.55;;;14.40;;
62796;SDS011;48839;48.546;-4.178;2022-12-18T01:22:08;26.45;;;12.77;;
62796;SDS011;48839;48.546;-4.178;2022-12-18T01:24:34;29.02;;;13.93;;
62796;SDS011;48839;48.546;-4.178;2022-12-18T01:27:00;25.88;;;14.15;;
62796;SDS011;48839;48.546;-4.178;2022-12-18T01:29:26;30.85;;;12.80;;
62796;SDS011;48839;48.546;-4.178;2022-12-18T01:31:54;28.38;;;13.75;;
62796;SDS011;48839;48.546;-4.178;2022-12-18T01:34:20;27.90;;;13.35;;
62796;SDS011;48839;48.546;-4.178;2022-12-18T01:36:46;24.65;;;12.50;;
62796;SDS011;48839;48.546;-4.178;2022-12-18T01:39:13;30.95;;;15.15;;
62796;SDS011;48839;48.546;-4.178;2022-12-18T01:41:39;32.47;;;14.85;;
62796;SDS011;48839;48.546;-4.178;2022-12-18T01:47:08;36.80;;;13.90;;
62796;SDS011;48839;48.546;-4.178;2022-12-18T01:49:35;30.58;;;15.10;;
62796;SDS011;48839;48.546;-4.178;2022-12-18T01:52:01;29.92;;;13.75;;
62796;SDS011;48839;48.546;-4.178;2022-12-18T01:54:27;31.23;;;14.60;;
62796;SDS011;48839;48.546;-4.178;2022-12-18T01:56:53;23.00;;;12.77;;
62796;SDS011;48839;48.546;-4.178;2022-12-18T01:59:19;28.60;;;13.60;;
62796;SDS011;48839;48.546;-4.178;2022-12-18T02:01:45;30.42;;;14.10;;
62796;SDS011;48839;48.546;-4.178;2022-12-18T02:04:29;26.95;;;13.35;;
62796;SDS011;48839;48.546;-4.178;2022-12-18T02:09:47;31.63;;;15.02;;
62796;SDS011;48839;48.546;-4.178;2022-12-18T02:12:21;34.50;;;15.02;;
62796;SDS011;48839;48.546;-4.178;2022-12-18T02:14:55;29.95;;;13.85;;
62796;SDS011;48839;48.546;-4.178;2022-12-18T02:17:37;26.05;;;13.13;;
62796;SDS011;48839;48.546;-4.178;2022-12-18T02:27:39;33.60;;;14.73;;
62796;SDS011;48839;48.546;-4.178;2022-12-18T02:30:05;27.10;;;14.80;;
62796;SDS011;48839;48.546;-4.178;2022-12-18T02:32:37;24.73;;;13.43;;
62796;SDS011;48839;48.546;-4.178;2022-12-18T02:35:04;29.15;;;14.20;;
62796;SDS011;48839;48.546;-4.178;2022-12-18T02:37:31;34.05;;;14.65;;
62796;SDS011;48839;48.546;-4.178;2022-12-18T02:39:58;25.40;;;13.55;;
62796;SDS011;48839;48.546;-4.178;2022-12-18T02:42:24;27.38;;;12.68;;
62796;SDS011;48839;48.546;-4.178;2022-12-18T02:44:51;27.17;;;13.57;;
62796;SDS011;48839;48.546;-4.178;2022-12-18T02:47:22;27.25;;;12.85;;
62796;SDS011;48839;48.546;-4.178;2022-12-18T02:57:37;26.92;;;12.90;;
62796;SDS011;48839;48.546;-4.178;2022-12-18T03:00:10;28.40;;;13.65;;
62796;SDS011;48839;48.546;-4.178;2022-12-18T03:02:55;28.75;;;14.35;;
62796;SDS011;48839;48.546;-4.178;2022-12-18T03:05:23;27.00;;;12.63;;
62796;SDS011;48839;48.546;-4.178;2022-12-18T03:07:57;31.58;;;13.40;;
62796;SDS011;48839;48.546;-4.178;2022-12-18T03:10:26;23.95;;;13.88;;
62796;SDS011;48839;48.546;-4.178;2022-12-18T03:12:55;25.17;;;13.70;;
62796;SDS011;48839;48.546;-4.178;2022-12-18T03:15:27;26.63;;;12.27;;
62796;SDS011;48839;48.546;-4.178;2022-12-18T03:17:56;23.25;;;12.73;;
62796;SDS011;48839;48.546;-4.178;2022-12-18T03:20:23;28.15;;;12.98;;
62796;SDS011;48839;48.546;-4.178;2022-12-18T03:22:52;33.00;;;14.32;;
62796;SDS011;48839;48.546;-4.178;2022-12-18T03:25:19;25.27;;;11.75;;
62796;SDS011;48839;48.546;-4.178;2022-12-18T03:27:49;23.38;;;12.90;;
62796;SDS011;48839;48.546;-4.178;2022-12-18T03:30:17;23.50;;;11.07;;
62796;SDS011;48839;48.546;-4.178;2022-12-18T03:35:10;22.42;;;12.13;;
62796;SDS011;48839;48.546;-4.178;2022-12-18T03:37:37;28.10;;;13.70;;
62796;SDS011;48839;48.546;-4.178;2022-12-18T03:40:04;35.67;;;12.57;;
62796;SDS011;48839;48.546;-4.178;2022-12-18T03:45:09;23.73;;;12.68;;
62796;SDS011;48839;48.546;-4.178;2022-12-18T03:50:26;23.58;;;12.27;;
62796;SDS011;48839;48.546;-4.178;2022-12-18T03:53:16;26.38;;;12.85;;
62796;SDS011;48839;48.546;-4.178;2022-12-18T03:55:43;23.83;;;11.27;;
62796;SDS011;48839;48.546;-4.178;2022-12-18T03:58:09;22.00;;;12.15;;
62796;SDS011;48839;48.546;-4.178;2022-12-18T04:00:37;25.42;;;10.75;;
62796;SDS011;48839;48.546;-4.178;2022-12-18T04:03:04;23.65;;;12.25;;
62796;SDS011;48839;48.546;-4.178;2022-12-18T04:05:31;26.50;;;13.25;;
62796;SDS011;48839;48.546;-4.178;2022-12-18T04:07:59;29.38;;;13.52;;
62796;SDS011;48839;48.546;-4.178;2022-12-18T04:10:26;26.52;;;13.23;;
62796;SDS011;48839;48.546;-4.178;2022-12-18T04:12:55;24.45;;;11.80;;
62796;SDS011;48839;48.546;-4.178;2022-12-18T04:15:21;23.30;;;11.38;;
62796;SDS011;48839;48.546;-4.178;2022-12-18T04:17:48;22.52;;;12.65;;
62796;SDS011;48839;48.546;-4.178;2022-12-18T04:20:14;24.52;;;11.30;;
62796;SDS011;48839;48.546;-4.178;2022-12-18T04:22:40;23.85;;;12.10;;
62796;SDS011;48839;48.546;-4.178;2022-12-18T04:25:06;23.90;;;11.32;;
62796;SDS011;48839;48.546;-4.178;2022-12-18T04:27:33;24.58;;;12.23;;
62796;SDS011;48839;48.546;-4.178;2022-12-18T04:29:59;27.90;;;12.95;;
62796;SDS011;48839;48.546;-4.178;2022-12-18T04:32:25;24.00;;;11.68;;
62796;SDS011;48839;48.546;-4.178;2022-12-18T04:34:51;23.13;;;10.73;;
62796;SDS011;48839;48.546;-4.178;2022-12-18T04:37:17;28.08;;;12.48;;
62796;SDS011;48839;48.546;-4.178;2022-12-18T04:39:43;24.35;;;11.77;;
62796;SDS011;48839;48.546;-4.178;2022-12-18T04:42:09;25.40;;;12.07;;
62796;SDS011;48839;48.546;-4.178;2022-12-18T04:44:35;26.20;;;11.52;;
62796;SDS011;48839;48.546;-4.178;2022-12-18T04:47:02;26.17;;;11.50;;
62796;SDS011;48839;48.546;-4.178;2022-12-18T04:49:28;23.50;;;11.70;;
62796;SDS011;48839;48.546;-4.178;2022-12-18T04:51:54;24.50;;;11.07;;
62796;SDS011;48839;48.546;-4.178;2022-12-18T04:54:20;24.02;;;12.60;;
62796;SDS011;48839;48.546;-4.178;2022-12-18T04:56:46;27.58;;;12.60;;
62796;SDS011;48839;48.546;-4.178;2022-12-18T04:59:12;22.38;;;11.05;;
62796;SDS011;48839;48.546;-4.178;2022-12-18T05:01:38;21.38;;;11.93;;
62796;SDS011;48839;48.546;-4.178;2022-12-18T05:04:04;26.33;;;12.40;;
62796;SDS011;48839;48.546;-4.178;2022-12-18T05:06:30;22.33;;;10.68;;
62796;SDS011;48839;48.546;-4.178;2022-12-18T05:08:56;28.75;;;13.35;;
62796;SDS011;48839;48.546;-4.178;2022-12-18T05:11:22;22.58;;;12.45;;
62796;SDS011;48839;48.546;-4.178;2022-12-18T05:13:48;27.42;;;12.43;;
62796;SDS011;48839;48.546;-4.178;2022-12-18T05:16:14;25.38;;;12.05;;
62796;SDS011;48839;48.546;-4.178;2022-12-18T05:18:40;27.92;;;13.27;;
62796;SDS011;48839;48.546;-4.178;2022-12-18T05:21:07;20.00;;;10.23;;
62796;SDS011;48839;48.546;-4.178;2022-12-18T05:23:33;24.40;;;12.02;;
62796;SDS011;48839;48.546;-4.178;2022-12-18T05:26:00;24.35;;;13.05;;
62796;SDS011;48839;48.546;-4.178;2022-12-18T05:28:27;23.38;;;11.60;;
62796;SDS011;48839;48.546;-4.178;2022-12-18T05:30:54;20.55;;;10.80;;
62796;SDS011;48839;48.546;-4.178;2022-12-18T05:33:21;23.17;;;11.95;;
62796;SDS011;48839;48.546;-4.178;2022-12-18T05:35:54;20.65;;;11.40;;
62796;SDS011;48839;48.546;-4.178;2022-12-18T05:38:21;20.98;;;10.55;;
62796;SDS011;48839;48.546;-4.178;2022-12-18T05:40:47;21.95;;;11.90;;
62796;SDS011;48839;48.546;-4.178;2022-12-18T05:43:13;24.15;;;12.23;;
62796;SDS011;48839;48.546;-4.178;2022-12-18T05:45:39;18.92;;;10.13;;
62796;SDS011;48839;48.546;-4.178;2022-12-18T05:48:06;18.98;;;10.98;;
62796;SDS011;48839;48.546;-4.178;2022-12-18T05:50:39;25.13;;;11.05;;
62796;SDS011;48839;48.546;-4.178;2022-12-18T05:53:05;22.90;;;10.98;;
62796;SDS011;48839;48.546;-4.178;2022-12-18T05:55:35;22.90;;;11.38;;
62796;SDS011;48839;48.546;-4.178;2022-12-18T05:58:02;18.35;;;11.50;;
62796;SDS011;48839;48.546;-4.178;2022-12-18T06:00:28;25.38;;;11.18;;
62796;SDS011;48839;48.546;-4.178;2022-12-18T06:02:54;20.92;;;11.15;;
62796;SDS011;48839;48.546;-4.178;2022-12-18T06:05:20;19.48;;;11.77;;
62796;SDS011;48839;48.546;-4.178;2022-12-18T06:07:46;20.20;;;11.63;;
62796;SDS011;48839;48.546;-4.178;2022-12-18T06:10:12;21.73;;;9.68;;
62796;SDS011;48839;48.546;-4.178;2022-12-18T06:12:38;22.20;;;11.57;;
62796;SDS011;48839;48.546;-4.178;2022-12-18T06:15:04;24.73;;;11.80;;
62796;SDS011;48839;48.546;-4.178;2022-12-18T06:17:31;19.48;;;10.43;;
62796;SDS011;48839;48.546;-4.178;2022-12-18T06:19:57;23.13;;;11.90;;
62796;SDS011;48839;48.546;-4.178;2022-12-18T06:22:23;21.38;;;10.52;;
62796;SDS011;48839;48.546;-4.178;2022-12-18T06:24:50;18.20;;;9.20;;
62796;SDS011;48839;48.546;-4.178;2022-12-18T06:27:16;20.13;;;9.25;;
62796;SDS011;48839;48.546;-4.178;2022-12-18T06:29:42;20.95;;;9.63;;
62796;SDS011;48839;48.546;-4.178;2022-12-18T06:32:08;19.50;;;9.80;;
62796;SDS011;48839;48.546;-4.178;2022-12-18T06:34:34;18.27;;;9.68;;
62796;SDS011;48839;48.546;-4.178;2022-12-18T06:37:02;19.42;;;10.88;;
62796;SDS011;48839;48.546;-4.178;2022-12-18T06:39:28;18.33;;;9.20;;
62796;SDS011;48839;48.546;-4.178;2022-12-18T06:41:54;19.15;;;9.75;;
62796;SDS011;48839;48.546;-4.178;2022-12-18T06:44:20;18.92;;;10.38;;
62796;SDS011;48839;48.546;-4.178;2022-12-18T06:46:46;18.73;;;9.65;;
62796;SDS011;48839;48.546;-4.178;2022-12-18T06:49:12;18.70;;;9.73;;
62796;SDS011;48839;48.546;-4.178;2022-12-18T06:51:39;20.83;;;9.20;;
62796;SDS011;48839;48.546;-4.178;2022-12-18T06:54:05;19.15;;;9.57;;
62796;SDS011;48839;48.546;-4.178;2022-12-18T06:56:31;16.00;;;9.40;;
62796;SDS011;48839;48.546;-4.178;2022-12-18T06:58:57;15.68;;;9.00;;
62796;SDS011;48839;48.546;-4.178;2022-12-18T07:01:23;15.35;;;9.10;;
62796;SDS011;48839;48.546;-4.178;2022-12-18T07:03:55;20.77;;;9.23;;
62796;SDS011;48839;48.546;-4.178;2022-12-18T07:06:22;16.75;;;8.68;;
62796;SDS011;48839;48.546;-4.178;2022-12-18T07:08:49;15.85;;;8.57;;
62796;SDS011;48839;48.546;-4.178;2022-12-18T07:11:15;17.88;;;9.23;;
62796;SDS011;48839;48.546;-4.178;2022-12-18T07:13:42;18.38;;;8.77;;
62796;SDS011;48839;48.546;-4.178;2022-12-18T07:16:09;16.23;;;8.63;;
62796;SDS011;48839;48.546;-4.178;2022-12-18T07:18:36;17.75;;;8.70;;
62796;SDS011;48839;48.546;-4.178;2022-12-18T07:21:06;17.95;;;8.68;;
62796;SDS011;48839;48.546;-4.178;2022-12-18T07:23:33;16.95;;;8.65;;
62796;SDS011;48839;48.546;-4.178;2022-12-18T07:26:06;17.10;;;9.05;;
62796;SDS011;48839;48.546;-4.178;2022-12-18T07:28:33;14.07;;;7.13;;
62796;SDS011;48839;48.546;-4.178;2022-12-18T07:31:03;10.80;;;6.60;;
62796;SDS011;48839;48.546;-4.178;2022-12-18T07:33:30;15.02;;;6.72;;
62796;SDS011;48839;48.546;-4.178;2022-12-18T07:35:58;15.23;;;7.07;;
62796;SDS011;48839;48.546;-4.178;2022-12-18T07:38:24;13.20;;;7.47;;
62796;SDS011;48839;48.546;-4.178;2022-12-18T07:40:50;12.50;;;6.85;;
62796;SDS011;48839;48.546;-4.178;2022-12-18T07:43:16;13.02;;;7.13;;
62796;SDS011;48839;48.546;-4.178;2022-12-18T07:45:42;9.95;;;6.80;;
62796;SDS011;48839;48.546;-4.178;2022-12-18T07:48:09;11.90;;;7.38;;
62796;SDS011;48839;48.546;-4.178;2022-12-18T07:50:35;16.35;;;7.32;;
62796;SDS011;48839;48.546;-4.178;2022-12-18T07:53:01;9.38;;;6.53;;
62796;SDS011;48839;48.546;-4.178;2022-12-18T07:55:29;9.45;;;5.60;;
62796;SDS011;48839;48.546;-4.178;2022-12-18T07:57:55;15.95;;;6.40;;
62796;SDS011;48839;48.546;-4.178;2022-12-18T08:00:21;7.90;;;5.57;;
62796;SDS011;48839;48.546;-4.178;2022-12-18T08:02:47;13.48;;;6.05;;
62796;SDS011;48839;48.546;-4.178;2022-12-18T08:05:13;10.82;;;5.15;;
62796;SDS011;48839;48.546;-4.178;2022-12-18T08:07:40;8.07;;;5.18;;
62796;SDS011;48839;48.546;-4.178;2022-12-18T08:10:06;9.15;;;5.10;;
62796;SDS011;48839;48.546;-4.178;2022-12-18T08:12:32;11.52;;;5.20;;
62796;SDS011;48839;48.546;-4.178;2022-12-18T08:14:58;7.60;;;4.75;;
62796;SDS011;48839;48.546;-4.178;2022-12-18T08:17:24;7.88;;;5.45;;
62796;SDS011;48839;48.546;-4.178;2022-12-18T08:19:50;9.57;;;5.00;;
62796;SDS011;48839;48.546;-4.178;2022-12-18T08:22:16;9.27;;;4.43;;
62796;SDS011;48839;48.546;-4.178;2022-12-18T08:24:42;7.45;;;4.25;;
62796;SDS011;48839;48.546;-4.178;2022-12-18T08:27:08;7.97;;;4.60;;
62796;SDS011;48839;48.546;-4.178;2022-12-18T08:29:34;9.82;;;4.78;;
62796;SDS011;48839;48.546;-4.178;2022-12-18T08:32:00;9.90;;;4.15;;
62796;SDS011;48839;48.546;-4.178;2022-12-18T08:34:26;9.07;;;3.72;;
62796;SDS011;48839;48.546;-4.178;2022-12-18T08:36:52;5.10;;;3.80;;
62796;SDS011;48839;48.546;-4.178;2022-12-18T08:39:18;9.40;;;4.38;;
62796;SDS011;48839;48.546;-4.178;2022-12-18T08:41:44;7.38;;;4.60;;
62796;SDS011;48839;48.546;-4.178;2022-12-18T08:44:30;7.13;;;3.97;;
62796;SDS011;48839;48.546;-4.178;2022-12-18T08:47:02;8.18;;;3.78;;
62796;SDS011;48839;48.546;-4.178;2022-12-18T08:49:28;4.45;;;3.45;;
62796;SDS011;48839;48.546;-4.178;2022-12-18T08:51:54;8.45;;;3.50;;
62796;SDS011;48839;48.546;-4.178;2022-12-18T08:54:22;10.02;;;4.47;;
62796;SDS011;48839;48.546;-4.178;2022-12-18T08:56:48;3.92;;;2.85;;
62796;SDS011;48839;48.546;-4.178;2022-12-18T08:59:14;4.18;;;3.03;;
62796;SDS011;48839;48.546;-4.178;2022-12-18T09:01:41;4.88;;;3.30;;
62796;SDS011;48839;48.546;-4.178;2022-12-18T09:04:07;4.53;;;3.13;;
62796;SDS011;48839;48.546;-4.178;2022-12-18T09:06:34;5.95;;;3.38;;
62796;SDS011;48839;48.546;-4.178;2022-12-18T09:09:00;4.88;;;2.95;;
62796;SDS011;48839;48.546;-4.178;2022-12-18T09:11:26;5.22;;;3.47;;
62796;SDS011;48839;48.546;-4.178;2022-12-18T09:13:53;6.00;;;3.00;;
62796;SDS011;48839;48.546;-4.178;2022-12-18T09:16:19;4.90;;;2.97;;
62796;SDS011;48839;48.546;-4.178;2022-12-18T09:18:46;6.65;;;3.40;;
62796;SDS011;48839;48.546;-4.178;2022-12-18T09:21:14;5.90;;;3.35;;
62796;SDS011;48839;48.546;-4.178;2022-12-18T09:23:40;4.35;;;2.65;;
62796;SDS011;48839;48.546;-4.178;2022-12-18T09:26:06;5.07;;;3.40;;
62796;SDS011;48839;48.546;-4.178;2022-12-18T09:28:32;3.75;;;3.05;;
62796;SDS011;48839;48.546;-4.178;2022-12-18T09:30:58;6.38;;;3.42;;
62796;SDS011;48839;48.546;-4.178;2022-12-18T09:33:24;6.30;;;3.20;;
62796;SDS011;48839;48.546;-4.178;2022-12-18T09:35:50;5.07;;;2.85;;
62796;SDS011;48839;48.546;-4.178;2022-12-18T09:38:17;11.27;;;3.58;;
62796;SDS011;48839;48.546;-4.178;2022-12-18T09:40:46;6.28;;;3.45;;
62796;SDS011;48839;48.546;-4.178;2022-12-18T09:43:14;6.55;;;3.35;;
62796;SDS011;48839;48.546;-4.178;2022-12-18T09:45:42;4.47;;;3.00;;
62796;SDS011;48839;48.546;-4.178;2022-12-18T09:48:17;6.15;;;3.00;;
62796;SDS011;48839;48.546;-4.178;2022-12-18T09:50:44;4.85;;;2.70;;
62796;SDS011;48839;48.546;-4.178;2022-12-18T09:53:13;7.85;;;3.20;;
62796;SDS011;48839;48.546;-4.178;2022-12-18T09:55:42;6.47;;;3.00;;
62796;SDS011;48839;48.546;-4.178;2022-12-18T10:00:37;6.57;;;2.83;;
62796;SDS011;48839;48.546;-4.178;2022-12-18T10:03:08;5.38;;;3.08;;
62796;SDS011;48839;48.546;-4.178;2022-12-18T10:20:54;3.97;;;2.15;;
62796;SDS011;48839;48.546;-4.178;2022-12-18T10:23:25;5.53;;;2.25;;
62796;SDS011;48839;48.546;-4.178;2022-12-18T10:28:20;5.80;;;2.53;;
62796;SDS011;48839;48.546;-4.178;2022-12-18T10:30:47;3.83;;;1.75;;
62796;SDS011;48839;48.546;-4.178;2022-12-18T10:33:18;8.45;;;2.53;;
62796;SDS011;48839;48.546;-4.178;2022-12-18T10:35:44;3.47;;;2.05;;
62796;SDS011;48839;48.546;-4.178;2022-12-18T10:40:50;3.28;;;1.75;;
62796;SDS011;48839;48.546;-4.178;2022-12-18T10:43:19;3.25;;;1.92;;
62796;SDS011;48839;48.546;-4.178;2022-12-18T10:45:57;3.42;;;2.20;;
62796;SDS011;48839;48.546;-4.178;2022-12-18T10:48:24;5.07;;;1.60;;
62796;SDS011;48839;48.546;-4.178;2022-12-18T10:50:50;5.80;;;1.90;;
62796;SDS011;48839;48.546;-4.178;2022-12-18T10:53:21;7.18;;;2.28;;
62796;SDS011;48839;48.546;-4.178;2022-12-18T10:55:48;2.35;;;1.80;;
62796;SDS011;48839;48.546;-4.178;2022-12-18T10:58:24;4.07;;;2.03;;
62796;SDS011;48839;48.546;-4.178;2022-12-18T11:03:39;3.50;;;1.77;;
62796;SDS011;48839;48.546;-4.178;2022-12-18T11:08:35;2.75;;;1.35;;
62796;SDS011;48839;48.546;-4.178;2022-12-18T11:11:02;3.15;;;1.52;;
62796;SDS011;48839;48.546;-4.178;2022-12-18T11:13:29;1.98;;;1.63;;
62796;SDS011;48839;48.546;-4.178;2022-12-18T11:15:56;2.17;;;1.83;;
62796;SDS011;48839;48.546;-4.178;2022-12-18T11:20:53;2.10;;;1.48;;
62796;SDS011;48839;48.546;-4.178;2022-12-18T11:23:20;3.00;;;1.25;;
62796;SDS011;48839;48.546;-4.178;2022-12-18T11:25:51;2.35;;;1.67;;
62796;SDS011;48839;48.546;-4.178;2022-12-18T11:28:28;3.42;;;2.10;;
62796;SDS011;48839;48.546;-4.178;2022-12-18T11:33:41;2.80;;;1.10;;
62796;SDS011;48839;48.546;-4.178;2022-12-18T11:36:08;1.42;;;1.33;;
62796;SDS011;48839;48.546;-4.178;2022-12-18T11:38:35;1.20;;;1.10;;
62796;SDS011;48839;48.546;-4.178;2022-12-18T11:41:04;3.92;;;1.38;;
62796;SDS011;48839;48.546;-4.178;2022-12-18T11:43:50;2.30;;;1.85;;
62796;SDS011;48839;48.546;-4.178;2022-12-18T11:46:19;5.03;;;2.28;;
62796;SDS011;48839;48.546;-4.178;2022-12-18T11:48:52;6.63;;;2.17;;
62796;SDS011;48839;48.546;-4.178;2022-12-18T11:51:23;4.70;;;1.55;;
62796;SDS011;48839;48.546;-4.178;2022-12-18T11:53:51;3.15;;;1.63;;
62796;SDS011;48839;48.546;-4.178;2022-12-18T11:56:31;2.08;;;1.80;;
62796;SDS011;48839;48.546;-4.178;2022-12-18T12:09:23;1.40;;;1.30;;
62796;SDS011;48839;48.546;-4.178;2022-12-18T12:17:11;3.05;;;1.80;;
62796;SDS011;48839;48.546;-4.178;2022-12-18T12:31:03;4.47;;;1.85;;
62796;SDS011;48839;48.546;-4.178;2022-12-18T12:38:24;5.43;;;1.73;;
62796;SDS011;48839;48.546;-4.178;2022-12-18T12:40:56;2.70;;;1.77;;
62796;SDS011;48839;48.546;-4.178;2022-12-18T12:45:57;3.60;;;1.17;;
62796;SDS011;48839;48.546;-4.178;2022-12-18T12:50:50;4.05;;;1.17;;
62796;SDS011;48839;48.546;-4.178;2022-12-18T12:53:25;1.67;;;1.55;;
62796;SDS011;48839;48.546;-4.178;2022-12-18T12:55:52;3.78;;;2.00;;
62796;SDS011;48839;48.546;-4.178;2022-12-18T13:05:50;4.20;;;1.85;;
62796;SDS011;48839;48.546;-4.178;2022-12-18T13:08:25;6.78;;;2.40;;
62796;SDS011;48839;48.546;-4.178;2022-12-18T13:10:52;3.67;;;1.83;;
62796;SDS011;48839;48.546;-4.178;2022-12-18T13:13:49;1.55;;;1.45;;
62796;SDS011;48839;48.546;-4.178;2022-12-18T13:16:17;2.85;;;1.92;;
62796;SDS011;48839;48.546;-4.178;2022-12-18T13:18:53;4.28;;;2.30;;
62796;SDS011;48839;48.546;-4.178;2022-12-18T13:21:30;3.65;;;1.63;;
62796;SDS011;48839;48.546;-4.178;2022-12-18T13:24:14;2.45;;;1.83;;
62796;SDS011;48839;48.546;-4.178;2022-12-18T13:26:40;1.77;;;1.67;;
62796;SDS011;48839;48.546;-4.178;2022-12-18T13:29:06;2.78;;;1.38;;
62796;SDS011;48839;48.546;-4.178;2022-12-18T13:34:21;2.30;;;1.70;;
62796;SDS011;48839;48.546;-4.178;2022-12-18T13:36:49;2.35;;;2.00;;
62796;SDS011;48839;48.546;-4.178;2022-12-18T13:41:54;2.65;;;1.38;;
62796;SDS011;48839;48.546;-4.178;2022-12-18T13:44:55;0.75;;;0.70;;
62796;SDS011;48839;48.546;-4.178;2022-12-18T13:47:26;3.15;;;1.70;;
62796;SDS011;48839;48.546;-4.178;2022-12-18T13:49:54;3.45;;;1.50;;
62796;SDS011;48839;48.546;-4.178;2022-12-18T13:52:21;4.13;;;1.20;;
62796;SDS011;48839;48.546;-4.178;2022-12-18T13:54:50;2.10;;;1.70;;
62796;SDS011;48839;48.546;-4.178;2022-12-18T13:57:31;4.70;;;1.45;;
62796;SDS011;48839;48.546;-4.178;2022-12-18T13:59:57;4.45;;;1.73;;
62796;SDS011;48839;48.546;-4.178;2022-12-18T14:02:25;0.98;;;0.95;;
62796;SDS011;48839;48.546;-4.178;2022-12-18T14:04:52;2.50;;;1.20;;
62796;SDS011;48839;48.546;-4.178;2022-12-18T14:07:25;1.33;;;0.85;;
62796;SDS011;48839;48.546;-4.178;2022-12-18T14:09:52;2.17;;;0.98;;
62796;SDS011;48839;48.546;-4.178;2022-12-18T14:12:25;3.50;;;1.10;;
62796;SDS011;48839;48.546;-4.178;2022-12-18T14:17:49;2.50;;;1.27;;
62796;SDS011;48839;48.546;-4.178;2022-12-18T14:20:16;3.50;;;1.05;;
62796;SDS011;48839;48.546;-4.178;2022-12-18T14:22:43;1.30;;;0.80;;
62796;SDS011;48839;48.546;-4.178;2022-12-18T14:25:18;2.25;;;1.98;;
62796;SDS011;48839;48.546;-4.178;2022-12-18T14:27:45;1.38;;;1.20;;
62796;SDS011;48839;48.546;-4.178;2022-12-18T14:32:59;2.67;;;1.23;;
62796;SDS011;48839;48.546;-4.178;2022-12-18T14:35:25;2.60;;;1.13;;
62796;SDS011;48839;48.546;-4.178;2022-12-18T14:37:51;3.17;;;0.93;;
62796;SDS011;48839;48.546;-4.178;2022-12-18T14:40:17;4.95;;;1.45;;
62796;SDS011;48839;48.546;-4.178;2022-12-18T14:42:43;2.50;;;2.05;;
62796;SDS011;48839;48.546;-4.178;2022-12-18T14:47:54;2.08;;;1.20;;
62796;SDS011;48839;48.546;-4.178;2022-12-18T14:50:20;1.25;;;1.02;;
62796;SDS011;48839;48.546;-4.178;2022-12-18T14:52:46;1.20;;;0.93;;
62796;SDS011;48839;48.546;-4.178;2022-12-18T14:55:16;6.15;;;1.63;;
62796;SDS011;48839;48.546;-4.178;2022-12-18T14:57:42;2.20;;;1.42;;
62796;SDS011;48839;48.546;-4.178;2022-12-18T15:00:16;2.47;;;2.03;;
62796;SDS011;48839;48.546;-4.178;2022-12-18T15:02:43;4.30;;;1.80;;
62796;SDS011;48839;48.546;-4.178;2022-12-18T15:07:40;3.17;;;1.85;;
62796;SDS011;48839;48.546;-4.178;2022-12-18T15:17:57;1.60;;;1.00;;
62796;SDS011;48839;48.546;-4.178;2022-12-18T15:20:23;2.55;;;0.95;;
62796;SDS011;48839;48.546;-4.178;2022-12-18T15:22:49;3.72;;;1.10;;
62796;SDS011;48839;48.546;-4.178;2022-12-18T15:25:27;1.65;;;1.48;;
62796;SDS011;48839;48.546;-4.178;2022-12-18T15:27:55;0.80;;;0.80;;
62796;SDS011;48839;48.546;-4.178;2022-12-18T15:30:21;4.97;;;1.40;;
62796;SDS011;48839;48.546;-4.178;2022-12-18T15:32:48;6.68;;;1.15;;
62796;SDS011;48839;48.546;-4.178;2022-12-18T15:37:44;1.10;;;0.93;;
62796;SDS011;48839;48.546;-4.178;2022-12-18T15:40:14;2.05;;;1.30;;
62796;SDS011;48839;48.546;-4.178;2022-12-18T15:42:40;3.47;;;1.75;;
62796;SDS011;48839;48.546;-4.178;2022-12-18T15:45:25;1.63;;;1.30;;
62796;SDS011;48839;48.546;-4.178;2022-12-18T15:47:51;4.13;;;1.52;;
62796;SDS011;48839;48.546;-4.178;2022-12-18T15:50:18;3.25;;;1.40;;
62796;SDS011;48839;48.546;-4.178;2022-12-18T15:52:44;1.20;;;1.05;;
62796;SDS011;48839;48.546;-4.178;2022-12-18T15:55:12;4.50;;;1.25;;
62796;SDS011;48839;48.546;-4.178;2022-12-18T15:57:57;2.70;;;1.65;;
62796;SDS011;48839;48.546;-4.178;2022-12-18T16:00:23;1.23;;;1.10;;
62796;SDS011;48839;48.546;-4.178;2022-12-18T16:02:49;4.88;;;1.75;;
62796;SDS011;48839;48.546;-4.178;2022-12-18T16:05:15;2.50;;;1.13;;
62796;SDS011;48839;48.546;-4.178;2022-12-18T16:07:42;2.90;;;1.27;;
62796;SDS011;48839;48.546;-4.178;2022-12-18T16:10:09;9.80;;;2.28;;
62796;SDS011;48839;48.546;-4.178;2022-12-18T16:12:35;7.57;;;3.47;;
62796;SDS011;48839;48.546;-4.178;2022-12-18T16:15:01;6.50;;;1.35;;
62796;SDS011;48839;48.546;-4.178;2022-12-18T16:17:27;6.68;;;2.05;;
62796;SDS011;48839;48.546;-4.178;2022-12-18T16:19:53;6.85;;;2.00;;
62796;SDS011;48839;48.546;-4.178;2022-12-18T16:22:23;6.53;;;1.50;;
62796;SDS011;48839;48.546;-4.178;2022-12-18T16:24:50;2.00;;;1.08;;
62796;SDS011;48839;48.546;-4.178;2022-12-18T16:27:16;1.80;;;1.13;;
62796;SDS011;48839;48.546;-4.178;2022-12-18T16:29:42;6.90;;;1.75;;
62796;SDS011;48839;48.546;-4.178;2022-12-18T16:32:11;9.90;;;2.38;;
62796;SDS011;48839;48.546;-4.178;2022-12-18T16:34:37;6.78;;;2.00;;
62796;SDS011;48839;48.546;-4.178;2022-12-18T16:37:04;6.38;;;1.98;;
62796;SDS011;48839;48.546;-4.178;2022-12-18T16:39:30;11.35;;;2.80;;
62796;SDS011;48839;48.546;-4.178;2022-12-18T16:41:58;6.97;;;1.80;;